Time;durP1;ratioP1;P1;durP2;ratioP2;P2;SDS_P1;SDS_P2;PMS_P1;PMS_P2;Temp;Humidity;BMP_temperature;BMP_pressure;BME280_temperature;BME280_humidity;BME280_pressure;Samples;Min_cycle;Max_cycle;Signal;HPM_P1;HPM_P2
2023/09/24 00:01:40;;;;;;;;;;;12.90;99.90;;;;;;2617125;49;19942;-73
2023/09/24 00:04:10;;;;;;;;;;;12.90;99.90;;;;;;2617680;47;19970;-73
2023/09/24 00:06:42;;;;;;;;;;;12.90;99.90;;;;;;2617673;46;20079;-76
2023/09/24 00:09:12;;;;;;;;;;;12.90;99.90;;;;;;2617398;47;19939;-75
2023/09/24 00:11:42;;;;;;;;;;;12.80;99.90;;;;;;2617521;54;19946;-73
2023/09/24 00:14:13;;;;;;;;;;;12.80;99.90;;;;;;2617613;47;19947;-78
2023/09/24 00:16:43;;;;;;;;;;;12.80;99.90;;;;;;2616957;54;19946;-76
2023/09/24 00:19:13;;;;;;;;;;;12.80;99.90;;;;;;2617325;47;19953;-74
2023/09/24 00:21:46;;;;;;;;;;;12.80;99.90;;;;;;2616880;46;19962;-73
2023/09/24 00:24:17;;;;;;;;;;;12.80;99.90;;;;;;2617097;54;20485;-75
2023/09/24 00:26:46;;;;;;;;;;;12.70;99.90;;;;;;2617069;39;20386;-73
2023/09/24 00:29:16;;;;;;;;;;;12.70;99.90;;;;;;2617503;54;20040;-73
2023/09/24 00:31:46;;;;;;;;;;;12.70;99.90;;;;;;2617485;47;19939;-74
2023/09/24 00:34:16;;;;;;;;;;;12.60;99.90;;;;;;2617698;54;19998;-73
2023/09/24 00:36:49;;;;;;;;;;;12.60;99.90;;;;;;2617887;54;19954;-75
2023/09/24 00:39:19;;;;;;;;;;;12.60;99.90;;;;;;2618153;49;19938;-74
2023/09/24 00:41:51;;;;;;;;;;;12.60;99.90;;;;;;2616295;54;19954;-75
2023/09/24 00:44:22;;;;;;;;;;;12.60;99.90;;;;;;2617641;39;20088;-74
2023/09/24 00:46:52;;;;;;;;;;;12.60;99.90;;;;;;2617688;54;20431;-75
2023/09/24 00:49:21;;;;;;;;;;;12.60;99.90;;;;;;2618255;39;20409;-74
2023/09/24 00:51:54;;;;;;;;;;;12.60;99.90;;;;;;2617634;54;19946;-74
2023/09/24 00:54:24;;;;;;;;;;;12.60;99.90;;;;;;2617578;47;19939;-73
2023/09/24 00:56:58;;;;;;;;;;;12.60;99.90;;;;;;2617679;47;19953;-74
2023/09/24 00:59:30;;;;;;;;;;;12.60;99.90;;;;;;2617233;47;19946;-74
2023/09/24 01:02:01;;;;;;;;;;;12.50;99.90;;;;;;2618279;39;20340;-73
2023/09/24 01:04:33;;;;;;;;;;;12.50;99.90;;;;;;2617718;54;19939;-73
2023/09/24 01:07:05;;;;;;;;;;;12.60;99.90;;;;;;2618371;47;19946;-73
2023/09/24 01:09:35;;;;;;;;;;;12.50;99.90;;;;;;2618448;54;19938;-73
2023/09/24 01:12:05;;;;;;;;;;;12.50;99.90;;;;;;2618283;39;20367;-74
2023/09/24 01:14:35;;;;;;;;;;;12.50;99.90;;;;;;2617773;47;19954;-74
2023/09/24 01:17:04;;;;;;;;;;;12.50;99.90;;;;;;2618427;47;19946;-75
2023/09/24 01:19:34;;;;;;;;;;;12.50;99.90;;;;;;2618244;54;19946;-76
2023/09/24 01:22:07;;;;;;;;;;;12.40;99.90;;;;;;2617796;54;19938;-74
2023/09/24 01:24:36;;;;;;;;;;;12.50;99.90;;;;;;2617770;47;19947;-74
2023/09/24 01:27:06;;;;;;;;;;;12.40;99.90;;;;;;2617745;47;20353;-73
2023/09/24 01:29:36;;;;;;;;;;;12.30;99.90;;;;;;2617665;54;19966;-74
2023/09/24 01:32:08;;;;;;;;;;;12.30;99.90;;;;;;2617650;47;20027;-74
2023/09/24 01:34:38;;;;;;;;;;;12.30;99.90;;;;;;2617650;54;19954;-74
2023/09/24 01:37:11;;;;;;;;;;;12.30;99.90;;;;;;2618209;39;20344;-76
2023/09/24 01:39:41;;;;;;;;;;;12.30;99.90;;;;;;2617646;54;19953;-75
2023/09/24 01:42:13;;;;;;;;;;;12.30;99.90;;;;;;2620065;39;20358;-74
2023/09/24 01:44:43;;;;;;;;;;;12.30;99.90;;;;;;2620024;47;19969;-75
2023/09/24 01:47:13;;;;;;;;;;;12.30;99.90;;;;;;2621954;54;19990;-75
2023/09/24 01:49:43;;;;;;;;;;;12.20;99.90;;;;;;2619785;54;19947;-76
2023/09/24 01:52:16;;;;;;;;;;;12.20;99.90;;;;;;2618187;52;20491;-74
2023/09/24 01:54:47;;;;;;;;;;;12.20;99.90;;;;;;2618578;54;19947;-73
2023/09/24 01:57:17;;;;;;;;;;;12.20;99.90;;;;;;2622760;54;19962;-75
2023/09/24 01:59:48;;;;;;;;;;;12.30;99.90;;;;;;2618778;47;20451;-74
2023/09/24 02:02:18;;;;;;;;;;;12.20;99.90;;;;;;2617780;47;19947;-75
2023/09/24 02:04:48;;;;;;;;;;;12.20;99.90;;;;;;2617637;54;20082;-75
2023/09/24 02:07:21;;;;;;;;;;;12.20;99.90;;;;;;2617659;47;19946;-74
2023/09/24 02:09:51;;;;;;;;;;;12.20;99.90;;;;;;2617474;49;20419;-74
2023/09/24 02:12:21;;;;;;;;;;;12.20;99.90;;;;;;2617625;50;19969;-74
2023/09/24 02:14:52;;;;;;;;;;;12.20;99.90;;;;;;2617889;47;19951;-75
2023/09/24 02:17:21;;;;;;;;;;;12.20;99.90;;;;;;2617954;47;19947;-75
2023/09/24 02:19:54;;;;;;;;;;;12.20;99.90;;;;;;2617500;47;20034;-73
2023/09/24 02:22:26;;;;;;;;;;;12.10;99.90;;;;;;2617641;47;19947;-73
2023/09/24 02:24:56;;;;;;;;;;;12.10;99.90;;;;;;2617890;47;20424;-73
2023/09/24 02:27:26;;;;;;;;;;;12.10;99.90;;;;;;2617321;54;19954;-75
2023/09/24 02:29:56;;;;;;;;;;;12.10;99.90;;;;;;2617003;54;19953;-75
2023/09/24 02:32:27;;;;;;;;;;;12.10;99.90;;;;;;2617945;54;20503;-74
2023/09/24 02:34:57;;;;;;;;;;;12.10;99.90;;;;;;2617825;54;19938;-73
2023/09/24 02:37:30;;;;;;;;;;;12.10;99.90;;;;;;2617604;54;19947;-74
2023/09/24 02:40:00;;;;;;;;;;;12.00;99.90;;;;;;2617299;54;19952;-73
2023/09/24 02:42:30;;;;;;;;;;;12.00;99.90;;;;;;2617783;47;19954;-76
2023/09/24 02:44:59;;;;;;;;;;;12.00;99.90;;;;;;2617516;47;19946;-73
2023/09/24 02:47:31;;;;;;;;;;;12.00;99.90;;;;;;2617383;47;19962;-74
2023/09/24 02:50:00;;;;;;;;;;;12.00;99.90;;;;;;2617167;54;20030;-74
2023/09/24 02:52:33;;;;;;;;;;;12.00;99.90;;;;;;2617416;54;19970;-75
2023/09/24 02:55:04;;;;;;;;;;;12.00;99.90;;;;;;2617330;47;19946;-76
2023/09/24 02:57:34;;;;;;;;;;;11.90;99.90;;;;;;2617067;47;20454;-74
2023/09/24 03:00:10;;;;;;;;;;;11.90;99.90;;;;;;2617266;47;19950;-75
2023/09/24 03:02:40;;;;;;;;;;;11.90;99.90;;;;;;2617318;39;20009;-74
2023/09/24 03:05:11;;;;;;;;;;;11.90;99.90;;;;;;2617126;54;19970;-74
2023/09/24 03:07:44;;;;;;;;;;;11.90;99.90;;;;;;2616802;47;19965;-74
2023/09/24 03:10:14;;;;;;;;;;;11.90;99.90;;;;;;2616861;54;19946;-74
2023/09/24 03:12:44;;;;;;;;;;;11.90;99.90;;;;;;2623792;54;20443;-73
2023/09/24 03:15:13;;;;;;;;;;;11.90;99.90;;;;;;2626338;54;20439;-73
2023/09/24 03:17:46;;;;;;;;;;;11.90;99.90;;;;;;2625929;54;20037;-75
2023/09/24 03:20:17;;;;;;;;;;;11.90;99.90;;;;;;2625692;47;20033;-72
2023/09/24 03:22:50;;;;;;;;;;;11.90;99.90;;;;;;2623765;47;19952;-72
2023/09/24 03:25:21;;;;;;;;;;;11.90;99.90;;;;;;2617244;54;19939;-72
2023/09/24 03:27:51;;;;;;;;;;;11.80;99.90;;;;;;2616692;47;19939;-73
2023/09/24 03:30:21;;;;;;;;;;;11.80;99.90;;;;;;2617432;54;19953;-73
2023/09/24 03:32:51;;;;;;;;;;;11.80;99.90;;;;;;2617783;54;19959;-74
2023/09/24 03:35:23;;;;;;;;;;;11.80;99.90;;;;;;2617245;47;19946;-73
2023/09/24 03:37:57;;;;;;;;;;;11.80;99.90;;;;;;2616916;54;19947;-74
2023/09/24 03:40:28;;;;;;;;;;;11.80;99.90;;;;;;2617269;46;19962;-74
2023/09/24 03:42:59;;;;;;;;;;;11.80;99.90;;;;;;2625025;54;19974;-78
2023/09/24 03:45:28;;;;;;;;;;;11.80;99.90;;;;;;2629927;54;19946;-77
2023/09/24 03:47:58;;;;;;;;;;;11.80;99.90;;;;;;2620274;54;19938;-73
2023/09/24 03:50:28;;;;;;;;;;;11.80;99.90;;;;;;2617464;54;19954;-73
2023/09/24 03:53:00;;;;;;;;;;;11.80;99.90;;;;;;2617428;39;20396;-74
2023/09/24 03:55:30;;;;;;;;;;;11.80;99.90;;;;;;2616793;54;19946;-73
2023/09/24 03:58:00;;;;;;;;;;;11.70;99.90;;;;;;2616974;54;19938;-72
2023/09/24 04:00:31;;;;;;;;;;;11.70;99.90;;;;;;2620964;47;19953;-75
2023/09/24 04:03:00;;;;;;;;;;;11.70;99.90;;;;;;2623962;47;19986;-75
2023/09/24 04:05:31;;;;;;;;;;;11.70;99.90;;;;;;2627500;54;19950;-77
2023/09/24 04:08:04;;;;;;;;;;;11.70;99.90;;;;;;2628899;54;19926;-77
2023/09/24 04:10:34;;;;;;;;;;;11.70;99.90;;;;;;2629480;54;20007;-79
2023/09/24 04:13:04;;;;;;;;;;;11.70;99.90;;;;;;2629238;54;19947;-78
2023/09/24 04:15:34;;;;;;;;;;;11.70;99.90;;;;;;2628937;47;19994;-77
2023/09/24 04:18:04;;;;;;;;;;;11.70;99.90;;;;;;2630173;54;20698;-76
2023/09/24 04:20:35;;;;;;;;;;;11.70;99.90;;;;;;2629115;47;19966;-77
2023/09/24 04:23:09;;;;;;;;;;;11.60;99.90;;;;;;2618969;47;20436;-73
2023/09/24 04:25:39;;;;;;;;;;;11.60;99.90;;;;;;2617955;54;19950;-73
2023/09/24 04:28:09;;;;;;;;;;;11.60;99.90;;;;;;2617897;47;19958;-75
2023/09/24 04:30:39;;;;;;;;;;;11.60;99.90;;;;;;2617969;54;19950;-74
2023/09/24 04:33:09;;;;;;;;;;;11.60;99.90;;;;;;2617950;47;19938;-74
2023/09/24 04:35:39;;;;;;;;;;;11.60;99.90;;;;;;2617949;39;20455;-73
2023/09/24 04:38:12;;;;;;;;;;;11.60;99.90;;;;;;2617901;46;19939;-75
2023/09/24 04:40:41;;;;;;;;;;;11.60;99.90;;;;;;2617995;46;19955;-74
2023/09/24 04:43:15;;;;;;;;;;;11.60;99.90;;;;;;2618249;39;20320;-74
2023/09/24 04:45:45;;;;;;;;;;;11.60;99.90;;;;;;2618390;39;20347;-73
2023/09/24 04:48:14;;;;;;;;;;;11.60;99.90;;;;;;2618066;47;19946;-75
2023/09/24 04:50:44;;;;;;;;;;;11.60;99.90;;;;;;2617692;54;19946;-74
2023/09/24 04:53:17;;;;;;;;;;;11.50;99.90;;;;;;2617685;39;20122;-73
2023/09/24 04:55:46;;;;;;;;;;;11.50;99.90;;;;;;2617744;54;19947;-74
2023/09/24 04:58:16;;;;;;;;;;;11.50;99.90;;;;;;2618307;47;19965;-74
2023/09/24 05:00:46;;;;;;;;;;;11.40;99.90;;;;;;2617869;47;20499;-74
2023/09/24 05:03:16;;;;;;;;;;;11.50;99.90;;;;;;2617893;54;19947;-72
2023/09/24 05:05:45;;;;;;;;;;;11.50;99.90;;;;;;2617823;47;19947;-74
2023/09/24 05:08:18;;;;;;;;;;;11.50;99.90;;;;;;2622168;39;20363;-75
2023/09/24 05:10:49;;;;;;;;;;;11.50;99.90;;;;;;2619010;47;19951;-74
2023/09/24 05:13:19;;;;;;;;;;;11.50;99.90;;;;;;2618208;47;20431;-73
2023/09/24 05:15:53;;;;;;;;;;;11.50;99.90;;;;;;2618698;47;20443;-73
2023/09/24 05:18:23;;;;;;;;;;;11.50;99.90;;;;;;2618838;39;20432;-74
2023/09/24 05:20:53;;;;;;;;;;;11.50;99.90;;;;;;2617597;49;19959;-72
2023/09/24 05:23:26;;;;;;;;;;;11.50;99.90;;;;;;2617742;47;20457;-75
2023/09/24 05:25:55;;;;;;;;;;;11.50;99.90;;;;;;2617901;47;20442;-74
2023/09/24 05:28:25;;;;;;;;;;;11.50;99.90;;;;;;2617631;54;19946;-74
2023/09/24 05:30:57;;;;;;;;;;;11.40;99.90;;;;;;2617548;54;19956;-74
2023/09/24 05:33:26;;;;;;;;;;;11.40;99.90;;;;;;2617905;54;19939;-74
2023/09/24 05:35:56;;;;;;;;;;;11.40;99.90;;;;;;2617924;54;19939;-74
2023/09/24 05:38:29;;;;;;;;;;;11.40;99.90;;;;;;2618130;54;20449;-76
2023/09/24 05:40:59;;;;;;;;;;;11.40;99.90;;;;;;2617993;54;19954;-75
2023/09/24 05:43:29;;;;;;;;;;;11.40;99.90;;;;;;2618020;46;19938;-75
2023/09/24 05:46:01;;;;;;;;;;;11.50;99.90;;;;;;2617524;49;19939;-74
2023/09/24 05:48:31;;;;;;;;;;;11.50;99.90;;;;;;2616661;54;20451;-71
2023/09/24 05:51:04;;;;;;;;;;;11.50;99.90;;;;;;2617190;54;19946;-69
2023/09/24 05:53:36;;;;;;;;;;;11.60;99.90;;;;;;2616684;52;19947;-69
2023/09/24 05:56:06;;;;;;;;;;;11.60;99.90;;;;;;2617272;54;19946;-70
2023/09/24 05:58:36;;;;;;;;;;;11.60;99.90;;;;;;2616964;47;19947;-70
2023/09/24 06:01:06;;;;;;;;;;;11.60;99.90;;;;;;2617637;54;19953;-72
2023/09/24 06:03:35;;;;;;;;;;;11.70;99.90;;;;;;2618368;54;19953;-70
2023/09/24 06:06:09;;;;;;;;;;;11.60;99.90;;;;;;2617006;54;19975;-70
2023/09/24 06:08:41;;;;;;;;;;;11.70;99.90;;;;;;2616186;54;20034;-70
2023/09/24 06:11:11;;;;;;;;;;;11.70;99.90;;;;;;2616502;47;19939;-70
2023/09/24 06:13:41;;;;;;;;;;;11.70;99.90;;;;;;2616547;54;19947;-70
2023/09/24 06:16:10;;;;;;;;;;;11.70;99.90;;;;;;2616579;47;19969;-70
2023/09/24 06:18:40;;;;;;;;;;;11.80;99.90;;;;;;2618217;54;19998;-71
2023/09/24 06:21:16;;;;;;;;;;;11.80;99.90;;;;;;2620717;47;19947;-69
2023/09/24 06:23:48;;;;;;;;;;;11.80;99.90;;;;;;2620081;47;19945;-69
2023/09/24 06:26:19;;;;;;;;;;;11.90;99.90;;;;;;2619499;54;19946;-71
2023/09/24 06:28:48;;;;;;;;;;;11.90;99.90;;;;;;2616586;47;19946;-71
2023/09/24 06:31:37;;;;;;;;;;;12.00;99.90;;;;;;2617122;54;19970;-71
2023/09/24 06:34:06;;;;;;;;;;;12.00;99.90;;;;;;2617102;54;19947;-71
2023/09/24 06:36:36;;;;;;;;;;;12.10;99.90;;;;;;2616267;54;19945;-69
2023/09/24 06:39:13;;;;;;;;;;;12.10;99.90;;;;;;2616353;47;19946;-69
2023/09/24 06:41:44;;;;;;;;;;;12.20;99.90;;;;;;2617044;47;19957;-70
2023/09/24 06:44:14;;;;;;;;;;;12.20;99.90;;;;;;2615201;47;19953;-69
2023/09/24 06:46:44;;;;;;;;;;;12.20;99.90;;;;;;2614971;47;19946;-70
2023/09/24 06:49:14;;;;;;;;;;;12.20;99.90;;;;;;2615636;47;19946;-69
2023/09/24 06:51:43;;;;;;;;;;;12.30;99.90;;;;;;2616413;54;19958;-70
2023/09/24 06:54:16;;;;;;;;;;;12.30;99.90;;;;;;2616489;47;19946;-69
2023/09/24 06:56:45;;;;;;;;;;;12.40;99.90;;;;;;2617009;54;19947;-70
2023/09/24 06:59:15;;;;;;;;;;;12.40;99.90;;;;;;2617009;31;20384;-68
2023/09/24 07:01:45;;;;;;;;;;;12.50;99.90;;;;;;2616821;47;19947;-69
2023/09/24 07:04:14;;;;;;;;;;;12.50;99.90;;;;;;2616598;51;19970;-70
2023/09/24 07:06:44;;;;;;;;;;;12.60;99.90;;;;;;2616537;54;19946;-69
2023/09/24 07:09:17;;;;;;;;;;;12.60;99.90;;;;;;2616067;47;19946;-69
2023/09/24 07:11:47;;;;;;;;;;;12.70;99.90;;;;;;2616827;49;19977;-68
2023/09/24 07:14:18;;;;;;;;;;;12.70;99.90;;;;;;2615896;51;19963;-68
2023/09/24 07:16:48;;;;;;;;;;;12.80;99.90;;;;;;2615975;54;20471;-68
2023/09/24 07:19:19;;;;;;;;;;;12.80;99.90;;;;;;2615902;54;20780;-69
2023/09/24 07:21:49;;;;;;;;;;;12.80;99.90;;;;;;2616828;47;19955;-70
2023/09/24 07:24:23;;;;;;;;;;;12.90;99.90;;;;;;2615560;54;20054;-69
2023/09/24 07:26:52;;;;;;;;;;;12.80;99.90;;;;;;2616228;47;19969;-69
2023/09/24 07:29:22;;;;;;;;;;;12.90;99.90;;;;;;2615456;54;19950;-71
2023/09/24 07:31:53;;;;;;;;;;;12.90;99.90;;;;;;2616407;47;19954;-68
2023/09/24 07:34:23;;;;;;;;;;;13.00;99.90;;;;;;2616238;54;19946;-70
2023/09/24 07:36:53;;;;;;;;;;;13.10;99.90;;;;;;2616321;54;20631;-69
2023/09/24 07:39:49;;;;;;;;;;;13.20;99.90;;;;;;2615773;54;19947;-69
2023/09/24 07:42:20;;;;;;;;;;;13.20;99.90;;;;;;2616251;47;19964;-69
2023/09/24 07:44:49;;;;;;;;;;;13.20;99.90;;;;;;2615623;47;19947;-73
2023/09/24 07:47:19;;;;;;;;;;;13.30;99.90;;;;;;2617604;54;20026;-73
2023/09/24 07:49:49;;;;;;;;;;;13.30;99.90;;;;;;2618229;39;20340;-73
2023/09/24 07:52:19;;;;;;;;;;;13.40;99.90;;;;;;2617125;54;19946;-76
2023/09/24 07:54:51;;;;;;;;;;;13.40;99.90;;;;;;2616171;54;19947;-73
2023/09/24 07:57:22;;;;;;;;;;;13.50;99.90;;;;;;2616236;54;19953;-73
2023/09/24 07:59:52;;;;;;;;;;;13.60;99.90;;;;;;2615421;47;19953;-73
2023/09/24 08:02:22;;;;;;;;;;;13.70;99.90;;;;;;2615695;54;19953;-73
2023/09/24 08:04:52;;;;;;;;;;;13.70;99.90;;;;;;2615911;47;19973;-73
2023/09/24 08:07:22;;;;;;;;;;;13.80;99.90;;;;;;2615800;54;20460;-72
2023/09/24 08:09:55;;;;;;;;;;;13.90;99.90;;;;;;2615731;54;19954;-72
2023/09/24 08:12:26;;;;;;;;;;;13.90;99.90;;;;;;2617588;47;19957;-73
2023/09/24 08:14:57;;;;;;;;;;;14.00;99.90;;;;;;2615798;46;19973;-74
2023/09/24 08:17:30;;;;;;;;;;;14.00;99.90;;;;;;2616914;39;20343;-74
2023/09/24 08:19:59;;;;;;;;;;;14.10;99.90;;;;;;2616431;54;19939;-72
2023/09/24 08:22:29;;;;;;;;;;;14.10;99.90;;;;;;2616172;54;19951;-73
2023/09/24 08:25:01;;;;;;;;;;;14.20;99.90;;;;;;2615565;48;19974;-73
2023/09/24 08:27:31;;;;;;;;;;;14.30;99.90;;;;;;2617788;54;19954;-72
2023/09/24 08:30:01;;;;;;;;;;;14.40;99.90;;;;;;2621140;54;19947;-72
2023/09/24 08:32:32;;;;;;;;;;;14.50;99.90;;;;;;2621373;47;20033;-72
2023/09/24 08:35:03;;;;;;;;;;;14.60;99.90;;;;;;2621366;54;20530;-72
2023/09/24 08:37:34;;;;;;;;;;;14.60;99.90;;;;;;2620216;54;19947;-71
2023/09/24 08:40:08;;;;;;;;;;;14.70;99.90;;;;;;2619533;54;19947;-72
2023/09/24 08:42:39;;;;;;;;;;;14.80;99.90;;;;;;2618736;54;19946;-72
2023/09/24 08:45:12;;;;;;;;;;;14.90;99.90;;;;;;2617108;54;19947;-73
2023/09/24 08:47:43;;;;;;;;;;;15.00;99.90;;;;;;2616239;47;19946;-72
2023/09/24 08:50:13;;;;;;;;;;;15.10;99.90;;;;;;2616047;47;20070;-72
2023/09/24 08:52:43;;;;;;;;;;;15.10;99.90;;;;;;2615811;54;19946;-72
2023/09/24 08:55:16;;;;;;;;;;;15.20;99.90;;;;;;2617928;54;19946;-73
2023/09/24 08:57:47;;;;;;;;;;;15.30;99.90;;;;;;2617123;47;20435;-72
2023/09/24 09:00:17;;;;;;;;;;;15.40;99.90;;;;;;2616652;54;19954;-72
2023/09/24 09:02:47;;;;;;;;;;;15.60;99.90;;;;;;2617119;54;19990;-72
2023/09/24 09:05:22;;;;;;;;;;;15.70;99.90;;;;;;2618372;54;20406;-72
2023/09/24 09:07:58;;;;;;;;;;;15.70;99.90;;;;;;2620120;46;19946;-72
2023/09/24 09:10:32;;;;;;;;;;;15.70;99.90;;;;;;2618965;54;19949;-71
2023/09/24 09:13:06;;;;;;;;;;;15.90;99.90;;;;;;2619458;39;20355;-71
2023/09/24 09:15:36;;;;;;;;;;;15.90;99.90;;;;;;2617080;54;20450;-70
2023/09/24 09:18:06;;;;;;;;;;;16.70;99.90;;;;;;2616282;39;20379;-63
2023/09/24 09:20:43;;;;;;;;;;;16.10;99.90;;;;;;2616475;50;19954;-63
2023/09/24 09:23:16;;;;;;;;;;;16.20;99.90;;;;;;2616787;54;19986;-64
2023/09/24 09:25:52;;;;;;;;;;;16.30;99.90;;;;;;2616191;54;19951;-64
2023/09/24 09:28:23;;;;;;;;;;;16.40;99.90;;;;;;2616207;54;19958;-64
2023/09/24 09:31:06;;;;;;;;;;;16.50;99.90;;;;;;2617144;39;20346;-63
2023/09/24 09:33:36;;;;;;;;;;;16.60;99.90;;;;;;2617115;39;20379;-64
2023/09/24 09:36:06;;;;;;;;;;;16.80;99.90;;;;;;2616713;54;19947;-65
2023/09/24 09:38:36;;;;;;;;;;;16.90;99.90;;;;;;2616294;54;19950;-68
2023/09/24 09:41:08;;;;;;;;;;;17.00;99.90;;;;;;2617273;47;19950;-66
2023/09/24 09:43:38;;;;;;;;;;;17.20;99.90;;;;;;2616608;54;19950;-54
2023/09/24 09:46:09;;;;;;;;;;;17.20;99.90;;;;;;2617073;47;20101;-52
2023/09/24 09:48:40;;;;;;;;;;;17.30;99.90;;;;;;2616842;54;19983;-52
2023/09/24 09:51:13;;;;;;;;;;;17.40;99.90;;;;;;2616667;54;20002;-52
2023/09/24 09:53:43;;;;;;;;;;;17.50;99.90;;;;;;2616784;46;19962;-53
2023/09/24 09:56:15;;;;;;;;;;;17.60;99.90;;;;;;2617327;54;20463;-53
2023/09/24 09:58:47;;;;;;;;;;;17.70;99.90;;;;;;2616400;54;19954;-54
2023/09/24 10:01:20;;;;;;;;;;;17.90;99.90;;;;;;2616869;54;19969;-63
2023/09/24 10:03:51;;;;;;;;;;;17.90;99.90;;;;;;2616891;54;19963;-62
2023/09/24 10:06:21;;;;;;;;;;;18.00;99.90;;;;;;2616891;47;19953;-62
2023/09/24 10:08:52;;;;;;;;;;;18.20;99.90;;;;;;2615684;54;19958;-63
2023/09/24 10:11:38;;;;;;;;;;;18.20;99.90;;;;;;2616819;46;19955;-62
2023/09/24 10:14:10;;;;;;;;;;;18.30;99.90;;;;;;2615985;54;19953;-62
2023/09/24 10:16:41;;;;;;;;;;;18.40;99.90;;;;;;2616275;54;19946;-62
2023/09/24 10:19:12;;;;;;;;;;;18.60;99.90;;;;;;2615702;54;20297;-62
2023/09/24 10:21:42;;;;;;;;;;;18.70;99.90;;;;;;2616161;54;19947;-62
2023/09/24 10:24:39;;;;;;;;;;;18.70;99.90;;;;;;2613672;54;19947;-62
2023/09/24 10:27:08;;;;;;;;;;;18.80;99.90;;;;;;2610374;39;20098;-61
2023/09/24 10:29:56;;;;;;;;;;;18.90;99.90;;;;;;2613420;39;20374;-61
2023/09/24 10:32:29;;;;;;;;;;;19.00;99.90;;;;;;2612918;39;20456;-61
2023/09/24 10:35:12;;;;;;;;;;;19.00;99.90;;;;;;2611947;47;19954;-61
2023/09/24 10:38:12;;;;;;;;;;;19.10;99.90;;;;;;2612369;54;19946;-62
2023/09/24 10:41:05;;;;;;;;;;;19.10;99.90;;;;;;2615301;54;20067;-62
2023/09/24 10:43:34;;;;;;;;;;;19.20;99.90;;;;;;2614651;54;19946;-62
2023/09/24 10:46:19;;;;;;;;;;;19.30;99.90;;;;;;2616500;54;19945;-62
2023/09/24 10:48:51;;;;;;;;;;;19.40;99.90;;;;;;2618059;39;20376;-63
2023/09/24 10:51:22;;;;;;;;;;;19.50;99.90;;;;;;2617297;54;19958;-63
2023/09/24 10:53:51;;;;;;;;;;;19.50;99.90;;;;;;2616236;54;19974;-63
